createdAt,value
2022-12-26T00:02:11.874Z,9.95
2022-12-26T00:04:51.425Z,8.27
2022-12-26T00:07:25.581Z,7.32
2022-12-26T00:09:58.203Z,7.70
2022-12-26T00:12:30.904Z,8.05
2022-12-26T00:15:03.497Z,7.65
2022-12-26T00:17:36.080Z,8.10
2022-12-26T00:20:09.076Z,8.13
2022-12-26T00:22:41.909Z,8.05
2022-12-26T00:25:14.589Z,7.72
2022-12-26T00:27:47.916Z,7.05
2022-12-26T00:30:20.482Z,6.85
2022-12-26T00:32:54.190Z,7.38
2022-12-26T00:35:28.168Z,7.28
2022-12-26T00:38:00.776Z,7.97
2022-12-26T00:40:33.381Z,8.10
2022-12-26T00:43:06.017Z,7.28
2022-12-26T00:45:38.602Z,7.47
2022-12-26T00:48:11.099Z,7.10
2022-12-26T00:50:43.795Z,7.45
2022-12-26T00:53:20.065Z,7.53
2022-12-26T00:55:53.325Z,7.40
2022-12-26T01:01:22.957Z,7.65
2022-12-26T01:03:55.699Z,7.70
2022-12-26T01:06:28.459Z,6.80
2022-12-26T01:09:01.179Z,7.07
2022-12-26T01:11:42.689Z,7.72
2022-12-26T01:14:17.798Z,7.75
2022-12-26T01:16:50.355Z,7.60
2022-12-26T01:19:23.037Z,7.22
2022-12-26T01:21:55.634Z,7.32
2022-12-26T01:24:28.236Z,6.70
2022-12-26T01:27:00.780Z,6.95
2022-12-26T01:29:33.365Z,6.97
2022-12-26T01:32:06.808Z,6.80
2022-12-26T01:34:39.410Z,6.95
2022-12-26T01:37:14.340Z,6.55
2022-12-26T01:39:46.853Z,6.80
2022-12-26T01:42:21.948Z,7.05
2022-12-26T01:45:05.362Z,6.53
2022-12-26T01:47:47.528Z,6.70
2022-12-26T01:50:47.752Z,5.63
2022-12-26T01:53:29.365Z,5.72
2022-12-26T01:56:16.339Z,5.80
2022-12-26T01:58:58.184Z,5.43
2022-12-26T02:01:33.469Z,4.72
2022-12-26T02:04:28.810Z,5.03
2022-12-26T02:07:04.074Z,4.38
2022-12-26T02:09:37.628Z,5.20
2022-12-26T02:12:34.322Z,4.95
2022-12-26T02:15:16.862Z,4.72
2022-12-26T02:17:52.338Z,5.20
2022-12-26T02:20:31.072Z,4.40
2022-12-26T02:23:18.957Z,5.03
2022-12-26T02:26:12.201Z,5.30
2022-12-26T02:29:13.574Z,5.15
2022-12-26T02:32:12.234Z,4.65
2022-12-26T02:35:33.031Z,5.03
2022-12-26T02:38:23.073Z,4.82
2022-12-26T02:41:07.568Z,4.35
2022-12-26T02:44:33.774Z,4.50
2022-12-26T02:47:17.029Z,3.67
2022-12-26T02:50:45.752Z,4.28
2022-12-26T02:54:05.569Z,4.15
2022-12-26T02:57:05.233Z,4.22
2022-12-26T03:00:24.644Z,4.80
2022-12-26T03:03:28.828Z,4.80
2022-12-26T03:06:42.914Z,3.97
2022-12-26T03:09:33.676Z,4.40
2022-12-26T03:12:47.571Z,4.25
2022-12-26T03:15:22.515Z,3.47
2022-12-26T03:18:01.835Z,3.97
2022-12-26T03:20:36.419Z,4.47
2022-12-26T03:23:13.847Z,3.70
2022-12-26T03:26:14.898Z,4.22
2022-12-26T03:28:48.268Z,3.45
2022-12-26T03:34:17.607Z,3.53
2022-12-26T03:37:01.055Z,4.00
2022-12-26T03:40:22.355Z,3.75
2022-12-26T03:43:31.633Z,3.53
2022-12-26T03:47:01.427Z,3.85
2022-12-26T03:50:05.765Z,3.50
2022-12-26T03:52:56.449Z,3.53
2022-12-26T03:56:08.932Z,3.58
2022-12-26T03:59:26.411Z,3.63
2022-12-26T04:02:24.380Z,3.47
2022-12-26T04:05:17.931Z,3.42
2022-12-26T04:08:18.244Z,3.67
2022-12-26T04:11:14.534Z,3.80
2022-12-26T04:14:08.465Z,3.45
2022-12-26T04:20:18.793Z,3.20
2022-12-26T04:23:27.638Z,3.42
2022-12-26T04:26:27.845Z,3.30
2022-12-26T04:29:19.066Z,3.53
2022-12-26T04:32:17.124Z,3.72
2022-12-26T04:35:24.563Z,3.30
2022-12-26T04:38:16.810Z,3.10
2022-12-26T04:41:11.067Z,3.50
2022-12-26T04:44:03.150Z,3.28
2022-12-26T04:46:41.430Z,2.92
2022-12-26T04:49:41.704Z,3.30
2022-12-26T04:52:15.565Z,2.92
2022-12-26T04:54:48.221Z,2.90
2022-12-26T04:57:20.922Z,3.42
2022-12-26T04:59:53.482Z,2.63
2022-12-26T05:02:44.584Z,3.22
2022-12-26T05:05:35.527Z,3.25
2022-12-26T05:08:55.404Z,3.22
2022-12-26T05:11:31.090Z,3.28
2022-12-26T05:14:03.607Z,2.58
2022-12-26T05:16:54.504Z,3.28
2022-12-26T05:19:45.231Z,2.92
2022-12-26T05:22:36.446Z,3.90
2022-12-26T05:25:39.963Z,3.25
2022-12-26T05:28:33.507Z,3.20
2022-12-26T05:31:07.471Z,3.20
2022-12-26T05:36:37.784Z,3.13
2022-12-26T05:39:10.764Z,3.00
2022-12-26T05:41:43.473Z,3.00
2022-12-26T05:44:16.141Z,3.35
2022-12-26T05:46:49.000Z,3.22
2022-12-26T05:49:21.581Z,3.55
2022-12-26T05:51:54.094Z,4.45
2022-12-26T05:54:26.713Z,4.10
2022-12-26T05:56:59.841Z,4.13
2022-12-26T05:59:32.442Z,3.95
2022-12-26T06:02:05.083Z,3.45
2022-12-26T06:04:37.896Z,3.95
2022-12-26T06:07:10.554Z,4.22
2022-12-26T06:09:43.030Z,4.05
2022-12-26T06:12:15.696Z,4.35
2022-12-26T06:14:48.242Z,3.75
2022-12-26T06:17:20.825Z,4.30
2022-12-26T06:19:53.455Z,4.20
2022-12-26T06:22:26.020Z,3.78
2022-12-26T06:24:58.610Z,3.60
2022-12-26T06:27:31.128Z,3.65
2022-12-26T06:30:04.230Z,3.70
2022-12-26T06:32:36.737Z,3.53
2022-12-26T06:35:09.451Z,4.13
2022-12-26T06:37:42.008Z,3.92
2022-12-26T06:40:14.762Z,3.55
2022-12-26T06:42:48.376Z,4.28
2022-12-26T06:45:21.054Z,4.68
2022-12-26T06:50:27.261Z,4.40
2022-12-26T06:52:59.756Z,4.70
2022-12-26T06:55:32.898Z,5.55
2022-12-26T06:58:30.762Z,5.25
2022-12-26T07:01:12.342Z,5.10
2022-12-26T07:03:51.181Z,4.53
2022-12-26T07:06:30.990Z,4.70
2022-12-26T07:09:08.604Z,4.50
2022-12-26T07:11:43.748Z,4.55
2022-12-26T07:14:17.361Z,4.97
2022-12-26T07:16:49.912Z,3.75
2022-12-26T07:19:22.622Z,3.80
2022-12-26T07:21:55.161Z,4.50
2022-12-26T07:24:27.812Z,4.43
2022-12-26T07:27:00.965Z,4.53
2022-12-26T07:32:07.049Z,4.18
2022-12-26T07:34:41.453Z,3.90
2022-12-26T07:37:14.165Z,4.20
2022-12-26T07:39:46.691Z,4.95
2022-12-26T07:42:20.835Z,4.75
2022-12-26T07:44:53.842Z,4.50
2022-12-26T07:47:26.406Z,5.13
2022-12-26T07:50:24.532Z,5.55
2022-12-26T07:53:00.798Z,4.93
2022-12-26T07:55:33.367Z,4.60
2022-12-26T07:58:05.932Z,4.97
2022-12-26T08:00:38.509Z,5.68
2022-12-26T08:03:11.166Z,5.10
2022-12-26T08:05:50.545Z,5.82
2022-12-26T08:08:23.687Z,5.43
2022-12-26T08:13:35.998Z,5.88
2022-12-26T08:18:42.678Z,5.70
2022-12-26T08:23:48.682Z,5.50
2022-12-26T08:26:22.990Z,6.25
2022-12-26T08:28:56.870Z,6.30
2022-12-26T08:31:29.632Z,6.53
2022-12-26T08:34:02.545Z,6.32
2022-12-26T08:36:35.146Z,6.93
2022-12-26T08:39:07.951Z,7.72
2022-12-26T08:41:40.505Z,7.10
2022-12-26T08:44:30.173Z,7.35
2022-12-26T08:47:02.863Z,7.40
2022-12-26T08:49:35.621Z,7.55
2022-12-26T08:52:08.538Z,7.35
2022-12-26T08:54:41.241Z,6.55
2022-12-26T08:57:14.193Z,7.70
2022-12-26T08:59:46.901Z,8.82
2022-12-26T09:02:19.595Z,9.30
2022-12-26T09:04:56.473Z,8.88
2022-12-26T09:07:29.005Z,8.02
2022-12-26T09:10:01.635Z,7.18
2022-12-26T09:12:34.147Z,7.78
2022-12-26T09:15:07.786Z,6.90
2022-12-26T09:17:40.359Z,6.20
2022-12-26T09:20:14.740Z,6.40
2022-12-26T09:22:52.953Z,6.97
2022-12-26T09:25:27.189Z,7.22
2022-12-26T09:28:01.166Z,7.18
2022-12-26T09:30:33.970Z,6.60
2022-12-26T09:33:08.176Z,8.60
2022-12-26T09:35:41.559Z,8.40
2022-12-26T09:38:14.152Z,8.73
2022-12-26T09:41:24.750Z,8.40
2022-12-26T09:44:04.371Z,8.60
2022-12-26T09:47:06.125Z,9.38
2022-12-26T09:50:01.131Z,8.88
2022-12-26T09:52:52.218Z,8.35
2022-12-26T09:55:43.553Z,8.52
2022-12-26T09:58:33.848Z,8.88
2022-12-26T10:01:12.611Z,8.85
2022-12-26T10:03:48.313Z,8.52
2022-12-26T10:06:25.588Z,8.45
2022-12-26T10:09:04.353Z,8.02
2022-12-26T10:12:09.325Z,8.45
2022-12-26T10:15:06.819Z,7.63
2022-12-26T10:18:00.195Z,7.32
2022-12-26T10:23:29.221Z,7.38
2022-12-26T10:26:13.429Z,7.57
2022-12-26T10:29:08.693Z,7.10
2022-12-26T10:32:11.425Z,7.03
2022-12-26T10:34:47.823Z,6.97
2022-12-26T10:37:44.597Z,6.95
2022-12-26T10:40:47.691Z,8.38
2022-12-26T10:43:33.244Z,7.75
2022-12-26T10:46:08.851Z,7.80
2022-12-26T10:48:41.464Z,9.40
2022-12-26T10:51:14.605Z,8.38
2022-12-26T10:53:51.373Z,8.20
2022-12-26T10:56:25.321Z,9.07
2022-12-26T10:59:06.407Z,9.27
2022-12-26T11:01:41.296Z,9.10
2022-12-26T11:04:31.281Z,8.10
2022-12-26T11:07:13.256Z,7.00
2022-12-26T11:09:46.283Z,7.53
2022-12-26T11:15:02.713Z,8.07
2022-12-26T11:17:45.214Z,7.95
2022-12-26T11:20:18.091Z,8.05
2022-12-26T11:22:50.795Z,6.88
2022-12-26T11:25:30.690Z,6.53
2022-12-26T11:28:23.411Z,6.43
2022-12-26T11:30:56.902Z,6.60
2022-12-26T11:33:31.458Z,4.53
2022-12-26T11:36:10.285Z,4.32
2022-12-26T11:38:54.628Z,4.80
2022-12-26T11:41:32.968Z,4.05
2022-12-26T11:44:13.501Z,3.40
2022-12-26T11:46:59.896Z,3.35
2022-12-26T11:49:37.214Z,3.65
2022-12-26T11:52:47.581Z,3.65
2022-12-26T11:55:23.291Z,2.90
2022-12-26T11:57:58.963Z,3.55
2022-12-26T12:00:31.863Z,4.15
2022-12-26T12:03:28.557Z,4.50
2022-12-26T12:06:04.128Z,5.32
2022-12-26T12:09:16.757Z,4.25
2022-12-26T12:12:13.458Z,3.42
2022-12-26T12:15:13.203Z,3.63
2022-12-26T12:17:48.532Z,3.15
2022-12-26T12:21:01.559Z,3.25
2022-12-26T12:23:51.718Z,3.03
2022-12-26T12:26:36.138Z,3.85
2022-12-26T12:29:18.999Z,3.88
2022-12-26T12:31:54.323Z,4.15
2022-12-26T12:35:07.040Z,4.80
2022-12-26T12:38:10.486Z,5.50
2022-12-26T12:40:45.871Z,4.93
2022-12-26T12:43:50.880Z,5.45
2022-12-26T12:46:34.498Z,5.70
2022-12-26T12:49:15.107Z,4.50
2022-12-26T12:52:03.909Z,4.10
2022-12-26T12:54:45.696Z,4.82
2022-12-26T12:57:41.185Z,4.47
2022-12-26T13:00:23.803Z,4.22
2022-12-26T13:03:00.107Z,6.20
2022-12-26T13:06:03.534Z,6.20
2022-12-26T13:08:39.567Z,5.70
2022-12-26T13:11:35.491Z,4.97
2022-12-26T13:14:42.080Z,3.90
2022-12-26T13:17:33.459Z,5.45
2022-12-26T13:20:38.321Z,5.28
2022-12-26T13:23:49.793Z,5.60
2022-12-26T13:26:27.349Z,4.55
2022-12-26T13:29:29.961Z,4.38
2022-12-26T13:32:05.482Z,3.83
2022-12-26T13:34:38.241Z,4.20
2022-12-26T13:37:39.520Z,4.75
2022-12-26T13:40:19.151Z,4.28
2022-12-26T13:43:28.647Z,3.63
2022-12-26T13:46:02.052Z,3.65
2022-12-26T13:48:37.786Z,4.45
2022-12-26T13:51:59.304Z,4.47
2022-12-26T13:54:32.219Z,3.90
2022-12-26T13:57:29.153Z,4.68
2022-12-26T14:00:17.210Z,3.78
2022-12-26T14:03:20.766Z,4.00
2022-12-26T14:06:18.158Z,5.03
2022-12-26T14:09:06.735Z,4.63
2022-12-26T14:11:57.586Z,5.40
2022-12-26T14:14:54.410Z,5.38
2022-12-26T14:17:56.801Z,4.82
2022-12-26T14:20:52.121Z,5.97
2022-12-26T14:23:48.585Z,5.28
2022-12-26T14:26:27.024Z,5.40
2022-12-26T14:29:24.800Z,6.05
2022-12-26T14:32:21.840Z,5.88
2022-12-26T14:35:03.174Z,6.22
2022-12-26T14:37:46.917Z,6.05
2022-12-26T14:40:32.120Z,6.13
2022-12-26T14:43:12.925Z,5.55
2022-12-26T14:45:51.053Z,5.20
2022-12-26T14:48:23.698Z,5.40
2022-12-26T14:51:16.448Z,6.00
2022-12-26T14:54:17.714Z,5.20
2022-12-26T14:56:51.879Z,5.22
2022-12-26T14:59:30.724Z,6.18
2022-12-26T15:02:16.958Z,5.65
2022-12-26T15:05:22.063Z,6.30
2022-12-26T15:08:12.537Z,5.80
2022-12-26T15:11:00.152Z,6.47
2022-12-26T15:13:54.274Z,6.18
2022-12-26T15:16:47.427Z,7.25
2022-12-26T15:19:47.813Z,7.07
2022-12-26T15:22:38.775Z,7.53
2022-12-26T15:25:44.006Z,6.78
2022-12-26T15:28:34.584Z,7.03
2022-12-26T15:31:31.355Z,6.60
2022-12-26T15:34:28.841Z,7.80
2022-12-26T15:37:19.944Z,6.72
2022-12-26T15:40:31.852Z,7.13
2022-12-26T15:43:07.214Z,7.32
2022-12-26T15:46:19.535Z,6.82
2022-12-26T15:49:31.007Z,7.05
2022-12-26T15:52:27.278Z,7.32
2022-12-26T15:55:26.527Z,7.50
2022-12-26T15:58:36.314Z,7.07
2022-12-26T16:01:11.626Z,7.82
2022-12-26T16:03:59.029Z,8.30
2022-12-26T16:06:50.447Z,7.80
2022-12-26T16:09:52.882Z,8.13
2022-12-26T16:12:30.592Z,8.40
2022-12-26T16:15:10.246Z,9.50
2022-12-26T16:17:43.941Z,9.00
2022-12-26T16:20:50.575Z,8.38
2022-12-26T16:23:28.215Z,8.82
2022-12-26T16:26:01.449Z,8.93
2022-12-26T16:31:21.665Z,8.90
2022-12-26T16:33:57.262Z,9.15
2022-12-26T16:36:33.125Z,9.15
2022-12-26T16:39:10.269Z,9.88
2022-12-26T16:42:05.898Z,9.68
2022-12-26T16:44:41.308Z,11.07
2022-12-26T16:47:15.558Z,11.02
2022-12-26T16:49:48.677Z,11.43
2022-12-26T16:52:31.839Z,10.93
2022-12-26T16:55:23.015Z,10.73
2022-12-26T16:57:58.725Z,9.88
2022-12-26T17:00:33.338Z,10.30
2022-12-26T17:03:12.265Z,9.77
2022-12-26T17:05:47.419Z,9.90
2022-12-26T17:08:21.696Z,11.15
2022-12-26T17:10:54.526Z,9.80
2022-12-26T17:13:28.325Z,10.50
2022-12-26T17:16:05.541Z,9.70
2022-12-26T17:18:50.800Z,10.20
2022-12-26T17:21:32.054Z,10.45
2022-12-26T17:24:27.836Z,10.65
2022-12-26T17:27:20.130Z,12.27
2022-12-26T17:30:00.997Z,11.07
2022-12-26T17:32:46.898Z,11.80
2022-12-26T17:35:23.996Z,12.73
2022-12-26T17:38:01.235Z,11.85
2022-12-26T17:40:37.474Z,10.35
2022-12-26T17:43:12.799Z,11.23
2022-12-26T17:45:47.133Z,11.38
2022-12-26T17:48:20.160Z,11.80
2022-12-26T17:50:58.558Z,12.20
2022-12-26T17:53:38.058Z,12.32
2022-12-26T17:56:43.030Z,11.98
2022-12-26T17:59:15.642Z,11.32
2022-12-26T18:01:48.439Z,11.93
2022-12-26T18:04:21.052Z,12.48
2022-12-26T18:06:53.743Z,12.40
2022-12-26T18:09:28.181Z,13.07
2022-12-26T18:12:00.781Z,13.40
2022-12-26T18:14:33.569Z,13.45
2022-12-26T18:17:06.896Z,14.43
2022-12-26T18:19:39.698Z,14.02
2022-12-26T18:22:15.032Z,13.90
2022-12-26T18:24:49.138Z,14.50
2022-12-26T18:27:30.678Z,14.13
2022-12-26T18:30:03.287Z,14.13
2022-12-26T18:32:35.809Z,14.00
2022-12-26T18:35:08.771Z,13.65
2022-12-26T18:37:52.995Z,13.07
2022-12-26T18:40:30.415Z,13.07
2022-12-26T18:43:04.269Z,11.73
2022-12-26T18:45:38.295Z,12.40
2022-12-26T18:48:15.400Z,12.45
2022-12-26T18:50:47.954Z,12.13
2022-12-26T18:53:20.611Z,12.40
2022-12-26T18:55:53.572Z,12.27
2022-12-26T18:58:26.092Z,11.80
2022-12-26T19:01:01.989Z,12.55
2022-12-26T19:03:34.877Z,12.88
2022-12-26T19:06:09.627Z,12.50
2022-12-26T19:08:42.339Z,11.68
2022-12-26T19:11:15.695Z,12.32
2022-12-26T19:13:48.463Z,12.20
2022-12-26T19:16:23.299Z,10.98
2022-12-26T19:18:55.988Z,11.57
2022-12-26T19:21:28.578Z,12.52
2022-12-26T19:24:01.196Z,11.52
2022-12-26T19:26:33.792Z,12.32
2022-12-26T19:29:06.427Z,12.55
2022-12-26T19:31:39.455Z,12.40
2022-12-26T19:34:12.137Z,11.50
2022-12-26T19:36:44.970Z,12.93
2022-12-26T19:39:17.627Z,11.70
2022-12-26T19:41:50.181Z,10.80
2022-12-26T19:44:23.414Z,11.52
2022-12-26T19:47:11.464Z,11.80
2022-12-26T19:49:45.713Z,12.50
2022-12-26T19:52:18.449Z,12.10
2022-12-26T19:54:50.982Z,11.48
2022-12-26T19:57:23.686Z,11.32
2022-12-26T19:59:56.237Z,11.10
2022-12-26T20:02:28.996Z,11.05
2022-12-26T20:05:01.606Z,11.73
2022-12-26T20:07:34.452Z,11.35
2022-12-26T20:10:07.468Z,10.43
2022-12-26T20:12:40.116Z,10.80
2022-12-26T20:15:12.665Z,11.35
2022-12-26T20:17:45.304Z,12.15
2022-12-26T20:20:17.974Z,10.18
2022-12-26T20:22:53.171Z,10.05
2022-12-26T20:25:25.998Z,9.93
2022-12-26T20:27:58.606Z,10.45
2022-12-26T20:30:31.180Z,9.95
2022-12-26T20:33:03.897Z,9.85
2022-12-26T20:35:36.639Z,9.07
2022-12-26T20:38:09.182Z,9.60
2022-12-26T20:40:49.744Z,11.45
2022-12-26T20:43:22.755Z,9.98
2022-12-26T20:45:55.807Z,10.45
2022-12-26T20:51:05.083Z,9.30
2022-12-26T20:53:37.727Z,9.02
2022-12-26T20:56:11.038Z,9.60
2022-12-26T21:01:21.066Z,9.93
2022-12-26T21:03:55.290Z,9.68
2022-12-26T21:06:34.313Z,9.35
2022-12-26T21:09:07.414Z,9.10
2022-12-26T21:11:42.822Z,9.20
2022-12-26T21:14:19.041Z,8.75
2022-12-26T21:16:55.292Z,7.95
2022-12-26T21:19:29.693Z,9.02
2022-12-26T21:22:02.212Z,9.27
2022-12-26T21:24:34.848Z,8.02
2022-12-26T21:27:07.497Z,8.43
2022-12-26T21:29:40.468Z,7.97
2022-12-26T21:32:13.041Z,9.00
2022-12-26T21:34:45.769Z,8.68
2022-12-26T21:37:36.703Z,9.50
2022-12-26T21:40:09.784Z,9.98
2022-12-26T21:42:42.371Z,9.40
2022-12-26T21:45:15.047Z,8.75
2022-12-26T21:47:47.616Z,9.65
2022-12-26T21:50:20.398Z,9.73
2022-12-26T21:52:52.957Z,9.27
2022-12-26T21:55:28.529Z,9.25
2022-12-26T21:58:01.527Z,8.55
2022-12-26T22:00:35.709Z,8.27
2022-12-26T22:03:27.314Z,7.38
2022-12-26T22:06:00.028Z,8.00
2022-12-26T22:08:32.655Z,8.45
2022-12-26T22:11:23.706Z,8.38
2022-12-26T22:13:56.314Z,6.90
2022-12-26T22:16:30.344Z,6.85
2022-12-26T22:19:03.037Z,6.97
2022-12-26T22:21:35.724Z,7.28
2022-12-26T22:24:10.917Z,6.80
2022-12-26T22:26:43.645Z,7.10
2022-12-26T22:29:16.548Z,6.35
2022-12-26T22:31:50.637Z,6.82
2022-12-26T22:34:23.232Z,6.07
2022-12-26T22:36:58.152Z,6.43
2022-12-26T22:39:30.752Z,6.47
2022-12-26T22:42:03.319Z,6.72
2022-12-26T22:44:35.894Z,6.68
2022-12-26T22:47:08.333Z,6.35
2022-12-26T22:49:43.704Z,5.90
2022-12-26T22:52:16.386Z,5.82
2022-12-26T22:54:49.132Z,5.97
2022-12-26T22:57:22.769Z,5.60
2022-12-26T23:00:08.470Z,5.38
2022-12-26T23:02:43.112Z,6.07
2022-12-26T23:05:16.110Z,7.07
2022-12-26T23:07:48.839Z,6.20
2022-12-26T23:10:24.970Z,6.07
2022-12-26T23:12:57.941Z,6.53
2022-12-26T23:15:30.638Z,6.78
2022-12-26T23:18:46.608Z,6.75
2022-12-26T23:21:44.589Z,6.68
2022-12-26T23:24:24.848Z,6.55
2022-12-26T23:27:20.590Z,7.28
2022-12-26T23:30:12.768Z,5.95
2022-12-26T23:32:50.062Z,5.43
2022-12-26T23:35:23.746Z,6.00
2022-12-26T23:37:56.312Z,6.25
2022-12-26T23:40:53.472Z,6.22
2022-12-26T23:43:25.993Z,5.40
2022-12-26T23:45:58.651Z,5.35
2022-12-26T23:48:34.232Z,6.22
2022-12-26T23:51:08.737Z,5.43
2022-12-26T23:53:42.429Z,5.43
2022-12-26T23:56:15.060Z,5.28
2022-12-26T23:58:47.720Z,5.25
